Sunday, May 27, 2018, 3:39 PM GMT
Back to Local

CXHF, High Falls , Que.

Location: , , Canada Lat: 45.833
Local Time: 3:39 PM GMT (15:39 GMT) Lon: -75.65
Time Zone: GMT Elev: 623 ft

Show me the last for .
Show Coded

Time T Td Feel RH Dir Speed Gust Alt SLP Vis Weather Sky Remarks
2018-05-27 15:00 63 51 - 65 - - - - - 0 None
2018-05-27 14:00 62 49 - 62 - - - - - 0 None
2018-05-27 11:00 55 51 - 89 - - - - - 0 None
2018-05-27 10:00 53 49 - 85 - - - - - 0 None
2018-05-27 08:00 55 47 - 73 - - - - - 0 None
2018-05-27 07:00 56 49 - 78 - - - - - 0 None
2018-05-27 06:00 55 51 - 87 - - - - - 0 None
2018-05-27 05:00 55 54 - 96 - - - - - 0 None
2018-05-27 04:00 58 58 - 100 - - - - - 0 None
2018-05-27 03:00 59 58 - 98 - - - - - 0 None
2018-05-27 02:00 63 62 - 98 - - - - - 0 None
2018-05-27 01:00 65 64 - 97 - - - - - 0 None
2018-05-27 00:00 66 65 - 95 - - - - - 0 None
2018-05-26 23:00 70 63 - 78 - - - - - 0 None
2018-05-26 22:00 73 61 77 65 - - - - - 0 None
2018-05-26 21:00 74 61 77 63 - - - - - 0 None
2018-05-26 20:00 72 60 76 65 - - - - - 0 None
2018-05-26 19:00 72 61 76 68 - - - - - 0 None
2018-05-26 18:00 71 60 76 70 - - - - - 0 1-hr Precip Total: 0.04"
2018-05-26 17:00 70 62 - 77 - - - - - 0 None
2018-05-26 16:00 67 64 - 89 - - - - - 0 None

Support USWX by starting your Amazon purchase here.